Time;durP1;ratioP1;P1;durP2;ratioP2;P2;SDS_P1;SDS_P2;PMS_P1;PMS_P2;Temp;Humidity;BMP_temperature;BMP_pressure;BME280_temperature;BME280_humidity;BME280_pressure;Samples;Min_cycle;Max_cycle;Signal;HPM_P1;HPM_P2
2021/04/21 00:01:34;;;;;;;23.80;19.37;;;;;;;;;;5097233;28;20863;-55
2021/04/21 00:04:03;;;;;;;29.00;21.50;;;;;;;;;;5097495;28;20929;-52
2021/04/21 00:06:29;;;;;;;29.40;20.27;;;;;;;;;;5096937;28;20401;-52
2021/04/21 00:08:55;;;;;;;26.90;20.50;;;;;;;;;;5097426;28;20399;-52
2021/04/21 00:11:22;;;;;;;27.70;20.10;;;;;;;;;;5097343;28;20962;-52
2021/04/21 00:13:48;;;;;;;24.37;19.10;;;;;;;;;;5097543;28;20401;-51
2021/04/21 00:16:16;;;;;;;28.20;20.30;;;;;;;;;;5097152;28;20968;-52
2021/04/21 00:18:43;;;;;;;25.87;20.67;;;;;;;;;;5096093;28;20695;-55
2021/04/21 00:21:09;;;;;;;30.60;20.27;;;;;;;;;;5097222;28;20429;-53
2021/04/21 00:23:37;;;;;;;26.70;20.00;;;;;;;;;;5097528;28;20403;-52
2021/04/21 00:26:07;;;;;;;27.47;19.53;;;;;;;;;;5097253;28;20945;-52
2021/04/21 00:28:34;;;;;;;27.03;19.77;;;;;;;;;;5097563;28;20934;-52
2021/04/21 00:31:02;;;;;;;26.10;21.07;;;;;;;;;;5097371;28;21007;-52
2021/04/21 00:33:28;;;;;;;25.40;19.07;;;;;;;;;;5097066;28;20468;-52
2021/04/21 00:35:55;;;;;;;27.80;20.10;;;;;;;;;;5097017;28;20404;-55
2021/04/21 00:38:22;;;;;;;27.63;20.17;;;;;;;;;;5096946;28;20547;-52
2021/04/21 00:40:56;;;;;;;26.83;19.60;;;;;;;;;;5096959;28;21016;-52
2021/04/21 00:43:36;;;;;;;26.60;20.00;;;;;;;;;;5097032;28;20491;-54
2021/04/21 00:46:23;;;;;;;34.07;22.10;;;;;;;;;;5096711;28;20400;-53
2021/04/21 00:49:08;;;;;;;27.80;21.00;;;;;;;;;;5096780;28;20933;-53
2021/04/21 00:51:38;;;;;;;24.50;19.47;;;;;;;;;;5097055;28;20396;-53
2021/04/21 00:54:07;;;;;;;26.83;20.43;;;;;;;;;;5096985;28;20816;-52
2021/04/21 00:56:42;;;;;;;28.50;21.10;;;;;;;;;;5096702;28;20429;-52
2021/04/21 00:59:12;;;;;;;25.87;20.00;;;;;;;;;;5096578;28;20466;-53
2021/04/21 01:01:38;;;;;;;25.57;19.67;;;;;;;;;;5096461;28;20879;-53
2021/04/21 01:04:06;;;;;;;32.60;19.80;;;;;;;;;;5096223;28;20399;-52
2021/04/21 01:06:39;;;;;;;33.87;22.00;;;;;;;;;;5092834;28;20399;-53
2021/04/21 01:09:07;;;;;;;32.57;22.60;;;;;;;;;;5093328;28;20420;-52
2021/04/21 01:11:32;;;;;;;30.27;22.03;;;;;;;;;;5093598;28;20400;-52
2021/04/21 01:14:01;;;;;;;27.03;22.60;;;;;;;;;;5093576;28;20411;-52
2021/04/21 01:16:29;;;;;;;29.50;21.57;;;;;;;;;;5093044;28;20431;-55
2021/04/21 01:18:57;;;;;;;32.47;21.60;;;;;;;;;;5093326;28;20455;-53
2021/04/21 01:21:26;;;;;;;33.93;22.13;;;;;;;;;;5093239;28;20395;-54
2021/04/21 01:24:04;;;;;;;31.00;21.30;;;;;;;;;;5093655;28;20450;-52
2021/04/21 01:26:35;;;;;;;31.03;21.43;;;;;;;;;;5093112;28;20403;-52
2021/04/21 01:29:02;;;;;;;26.80;20.20;;;;;;;;;;5093272;28;20419;-53
2021/04/21 01:31:30;;;;;;;28.07;21.27;;;;;;;;;;5092968;28;20403;-52
2021/04/21 01:33:56;;;;;;;32.07;22.10;;;;;;;;;;5093045;28;20399;-53
2021/04/21 01:36:24;;;;;;;26.03;19.93;;;;;;;;;;5092799;28;20899;-53
2021/04/21 01:38:51;;;;;;;32.90;22.50;;;;;;;;;;5093039;28;20497;-53
2021/04/21 01:41:19;;;;;;;34.60;23.60;;;;;;;;;;5092982;28;20434;-55
2021/04/21 01:43:46;;;;;;;31.83;24.03;;;;;;;;;;5093034;28;20935;-52
2021/04/21 01:46:14;;;;;;;29.00;22.40;;;;;;;;;;5092742;28;20429;-52
2021/04/21 01:48:41;;;;;;;30.30;21.50;;;;;;;;;;5092624;28;20407;-53
2021/04/21 01:51:30;;;;;;;38.90;24.07;;;;;;;;;;5092912;28;20410;-52
2021/04/21 01:54:05;;;;;;;30.20;22.00;;;;;;;;;;5084529;28;20819;-53
2021/04/21 01:56:42;;;;;;;34.37;23.27;;;;;;;;;;5091973;28;20917;-52
2021/04/21 01:59:11;;;;;;;32.57;22.60;;;;;;;;;;5092636;28;20470;-55
2021/04/21 02:01:52;;;;;;;31.87;23.73;;;;;;;;;;5092696;28;20407;-52
2021/04/21 02:04:35;;;;;;;30.60;23.00;;;;;;;;;;5092862;28;20441;-53
2021/04/21 02:07:10;;;;;;;32.13;24.57;;;;;;;;;;5092454;28;20779;-52
2021/04/21 02:09:54;;;;;;;31.43;23.13;;;;;;;;;;5092785;28;20777;-52
2021/04/21 02:12:20;;;;;;;35.50;24.40;;;;;;;;;;5092504;28;20397;-54
2021/04/21 02:15:00;;;;;;;33.93;22.33;;;;;;;;;;5092557;28;20800;-52
2021/04/21 02:17:44;;;;;;;33.47;24.10;;;;;;;;;;5092430;28;20899;-52
2021/04/21 02:20:15;;;;;;;37.07;23.60;;;;;;;;;;5092480;28;20412;-52
2021/04/21 02:22:45;;;;;;;37.10;23.80;;;;;;;;;;5092699;28;20399;-52
2021/04/21 02:25:16;;;;;;;37.27;23.67;;;;;;;;;;5092063;28;20425;-53
2021/04/21 02:27:54;;;;;;;29.60;21.07;;;;;;;;;;5092382;28;20391;-52
2021/04/21 02:30:39;;;;;;;29.23;22.30;;;;;;;;;;5091893;28;20424;-53
2021/04/21 02:33:11;;;;;;;30.47;23.37;;;;;;;;;;5092501;28;20486;-52
2021/04/21 02:35:49;;;;;;;31.50;21.97;;;;;;;;;;5091663;28;20483;-52
2021/04/21 02:38:33;;;;;;;33.40;23.13;;;;;;;;;;5091987;28;20446;-52
2021/04/21 02:41:07;;;;;;;32.47;21.43;;;;;;;;;;5091837;28;20479;-55
2021/04/21 02:43:33;;;;;;;31.03;21.80;;;;;;;;;;5092113;28;20775;-55
2021/04/21 02:46:11;;;;;;;29.60;23.33;;;;;;;;;;5091631;28;20392;-52
2021/04/21 02:48:44;;;;;;;30.23;22.03;;;;;;;;;;5091742;28;20929;-52
2021/04/21 02:51:35;;;;;;;32.20;22.70;;;;;;;;;;5091528;28;20600;-55
2021/04/21 02:54:19;;;;;;;28.37;20.60;;;;;;;;;;5091960;28;20392;-52
2021/04/21 02:56:45;;;;;;;32.53;21.57;;;;;;;;;;5091298;28;20423;-52
2021/04/21 02:59:21;;;;;;;32.20;23.03;;;;;;;;;;5091333;28;20888;-52
2021/04/21 03:02:08;;;;;;;31.77;24.33;;;;;;;;;;5091365;28;20410;-52
2021/04/21 03:04:44;;;;;;;35.03;24.13;;;;;;;;;;5091571;28;20480;-55
2021/04/21 03:07:15;;;;;;;36.77;25.77;;;;;;;;;;5091095;28;20449;-55
2021/04/21 03:09:47;;;;;;;33.87;24.10;;;;;;;;;;5091324;28;20461;-53
2021/04/21 03:12:13;;;;;;;36.63;24.93;;;;;;;;;;5091096;28;20403;-55
2021/04/21 03:14:41;;;;;;;34.50;23.90;;;;;;;;;;5091297;28;20778;-53
2021/04/21 03:17:08;;;;;;;37.27;26.80;;;;;;;;;;5090851;28;20415;-52
2021/04/21 03:19:37;;;;;;;36.93;24.57;;;;;;;;;;5091052;28;20497;-53
2021/04/21 03:22:13;;;;;;;41.53;26.13;;;;;;;;;;5089827;28;20407;-53
2021/04/21 03:24:40;;;;;;;36.53;24.60;;;;;;;;;;5091387;28;20841;-53
2021/04/21 03:27:07;;;;;;;35.40;25.47;;;;;;;;;;5090852;28;20775;-53
2021/04/21 03:29:44;;;;;;;38.77;26.23;;;;;;;;;;5090164;28;20978;-53
2021/04/21 03:32:16;;;;;;;35.80;25.33;;;;;;;;;;5091472;28;20402;-52
2021/04/21 03:34:43;;;;;;;39.47;26.30;;;;;;;;;;5090711;28;20910;-52
2021/04/21 03:37:21;;;;;;;38.40;25.77;;;;;;;;;;5090701;28;20411;-54
2021/04/21 03:39:52;;;;;;;42.00;25.80;;;;;;;;;;5090742;28;20445;-52
2021/04/21 03:42:18;;;;;;;40.77;24.67;;;;;;;;;;5090905;28;20406;-55
2021/04/21 03:44:44;;;;;;;36.43;24.60;;;;;;;;;;5089496;28;20411;-53
2021/04/21 03:47:10;;;;;;;38.23;26.93;;;;;;;;;;5090538;28;20749;-53
2021/04/21 03:49:38;;;;;;;41.57;27.57;;;;;;;;;;5090507;28;20410;-53
2021/04/21 03:52:04;;;;;;;39.47;25.60;;;;;;;;;;5090975;28;20407;-52
2021/04/21 03:54:31;;;;;;;40.20;26.07;;;;;;;;;;5090134;28;20402;-52
2021/04/21 03:56:59;;;;;;;38.90;25.70;;;;;;;;;;5089466;28;20496;-53
2021/04/21 03:59:26;;;;;;;40.07;26.40;;;;;;;;;;5090404;28;20962;-52
2021/04/21 04:01:54;;;;;;;38.33;26.40;;;;;;;;;;5090513;28;20463;-52
2021/04/21 04:04:21;;;;;;;42.93;27.43;;;;;;;;;;5090731;28;20398;-52
2021/04/21 04:06:48;;;;;;;43.70;27.00;;;;;;;;;;5090346;28;20404;-55
2021/04/21 04:09:17;;;;;;;40.90;26.80;;;;;;;;;;5090765;28;20808;-52
2021/04/21 04:11:49;;;;;;;38.40;26.63;;;;;;;;;;5090581;28;20413;-52
2021/04/21 04:14:19;;;;;;;40.70;28.10;;;;;;;;;;5090514;28;20474;-55
2021/04/21 04:16:46;;;;;;;38.37;25.40;;;;;;;;;;5090168;28;20409;-53
2021/04/21 04:19:13;;;;;;;40.13;26.77;;;;;;;;;;5090424;28;20476;-52
2021/04/21 04:21:42;;;;;;;42.23;26.13;;;;;;;;;;5090552;28;20761;-52
2021/04/21 04:24:09;;;;;;;44.70;30.07;;;;;;;;;;5091027;28;20462;-52
2021/04/21 04:26:36;;;;;;;43.20;28.20;;;;;;;;;;5090461;28;20403;-52
2021/04/21 04:29:02;;;;;;;46.97;29.27;;;;;;;;;;5090556;28;20417;-56
2021/04/21 04:31:30;;;;;;;55.60;32.77;;;;;;;;;;5090722;28;20467;-54
2021/04/21 04:33:57;;;;;;;47.83;32.00;;;;;;;;;;5090560;28;20478;-52
2021/04/21 04:36:24;;;;;;;46.80;31.07;;;;;;;;;;5090284;28;20901;-52
2021/04/21 04:38:50;;;;;;;50.47;29.67;;;;;;;;;;5090203;28;20446;-52
2021/04/21 04:41:16;;;;;;;45.03;28.30;;;;;;;;;;5092880;28;20394;-52
2021/04/21 04:43:43;;;;;;;48.37;27.63;;;;;;;;;;5093961;28;20410;-55
2021/04/21 04:46:10;;;;;;;44.53;27.20;;;;;;;;;;5094273;28;20394;-52
2021/04/21 04:48:41;;;;;;;45.13;28.40;;;;;;;;;;5094106;28;20490;-52
2021/04/21 04:51:07;;;;;;;42.93;27.80;;;;;;;;;;5094133;28;20412;-53
2021/04/21 04:53:36;;;;;;;43.30;27.73;;;;;;;;;;5092557;28;20419;-53
2021/04/21 04:56:03;;;;;;;42.30;26.53;;;;;;;;;;5093578;28;20411;-52
2021/04/21 04:58:29;;;;;;;43.10;26.70;;;;;;;;;;5093547;28;20516;-53
2021/04/21 05:01:05;;;;;;;44.83;27.67;;;;;;;;;;5093728;28;20429;-53
2021/04/21 05:03:34;;;;;;;41.07;27.23;;;;;;;;;;5093843;28;20816;-54
2021/04/21 05:06:02;;;;;;;43.90;28.73;;;;;;;;;;5094105;28;20681;-52
2021/04/21 05:08:32;;;;;;;51.37;29.37;;;;;;;;;;5093648;28;20414;-52
2021/04/21 05:11:03;;;;;;;40.17;27.70;;;;;;;;;;5093428;28;20436;-53
2021/04/21 05:13:36;;;;;;;43.20;29.37;;;;;;;;;;5093774;28;20406;-52
2021/04/21 05:16:13;;;;;;;45.57;29.30;;;;;;;;;;5093253;28;20402;-54
2021/04/21 05:18:39;;;;;;;45.00;29.40;;;;;;;;;;5093490;28;20454;-53
2021/04/21 05:21:23;;;;;;;43.73;28.50;;;;;;;;;;5093280;28;20478;-52
2021/04/21 05:24:04;;;;;;;40.77;28.03;;;;;;;;;;5093484;28;20394;-55
2021/04/21 05:26:34;;;;;;;46.50;29.20;;;;;;;;;;5091601;28;20406;-52
2021/04/21 05:29:24;;;;;;;43.33;29.57;;;;;;;;;;5093787;28;20893;-52
2021/04/21 05:32:05;;;;;;;51.23;29.47;;;;;;;;;;5092592;28;20415;-52
2021/04/21 05:34:31;;;;;;;45.63;29.10;;;;;;;;;;5092952;28;20480;-55
2021/04/21 05:37:03;;;;;;;39.53;26.37;;;;;;;;;;5092464;28;20450;-52
2021/04/21 05:39:41;;;;;;;37.50;27.03;;;;;;;;;;5092651;28;20654;-52
2021/04/21 05:42:27;;;;;;;41.70;28.37;;;;;;;;;;5092571;28;20414;-55
2021/04/21 05:44:57;;;;;;;41.60;29.83;;;;;;;;;;5092346;28;20740;-52
2021/04/21 05:47:43;;;;;;;42.23;27.90;;;;;;;;;;5092567;28;20395;-53
2021/04/21 05:50:27;;;;;;;43.50;28.87;;;;;;;;;;5092797;28;20962;-53
2021/04/21 05:53:02;;;;;;;41.27;26.50;;;;;;;;;;5091921;28;20429;-52
2021/04/21 05:55:47;;;;;;;37.47;25.60;;;;;;;;;;5092607;28;20440;-56
2021/04/21 05:58:24;;;;;;;34.33;23.80;;;;;;;;;;5092321;28;20457;-52
2021/04/21 06:00:50;;;;;;;31.63;23.50;;;;;;;;;;5092661;28;20477;-54
2021/04/21 06:03:18;;;;;;;43.50;28.70;;;;;;;;;;5092508;28;20403;-55
2021/04/21 06:05:44;;;;;;;41.03;27.97;;;;;;;;;;5092491;28;20401;-52
2021/04/21 06:08:13;;;;;;;52.20;29.53;;;;;;;;;;5092589;28;20399;-52
2021/04/21 06:10:40;;;;;;;45.87;29.60;;;;;;;;;;5092482;28;20436;-52
2021/04/21 06:13:06;;;;;;;41.80;27.90;;;;;;;;;;5092378;28;20431;-52
2021/04/21 06:15:34;;;;;;;46.20;28.30;;;;;;;;;;5092416;28;20883;-52
2021/04/21 06:18:01;;;;;;;47.10;29.47;;;;;;;;;;5092543;28;20450;-52
2021/04/21 06:20:32;;;;;;;59.40;30.70;;;;;;;;;;5092330;28;20933;-54
2021/04/21 06:23:04;;;;;;;42.60;28.67;;;;;;;;;;5092475;28;20435;-57
2021/04/21 06:25:30;;;;;;;44.00;28.67;;;;;;;;;;5092015;28;20392;-52
2021/04/21 06:28:25;;;;;;;47.27;30.43;;;;;;;;;;5092253;28;20971;-53
2021/04/21 06:31:02;;;;;;;43.90;28.50;;;;;;;;;;5078967;28;20450;-54
2021/04/21 06:33:39;;;;;;;42.93;26.47;;;;;;;;;;5092164;28;20501;-52
2021/04/21 06:36:07;;;;;;;47.00;29.87;;;;;;;;;;5091166;28;20412;-52
2021/04/21 06:38:34;;;;;;;48.27;28.77;;;;;;;;;;5091408;28;20830;-55
2021/04/21 06:41:00;;;;;;;41.60;28.90;;;;;;;;;;5091287;28;20507;-53
2021/04/21 06:43:27;;;;;;;47.33;28.60;;;;;;;;;;5096707;28;20414;-53
2021/04/21 06:45:53;;;;;;;40.67;26.90;;;;;;;;;;5096313;28;20411;-52
2021/04/21 06:48:27;;;;;;;38.27;27.63;;;;;;;;;;5091254;28;20518;-52
2021/04/21 06:50:53;;;;;;;41.87;26.70;;;;;;;;;;5091054;28;20428;-52
2021/04/21 06:53:27;;;;;;;38.83;26.77;;;;;;;;;;5089780;28;20407;-52
2021/04/21 06:55:55;;;;;;;40.80;28.53;;;;;;;;;;5089345;28;20411;-52
2021/04/21 06:58:22;;;;;;;47.57;31.50;;;;;;;;;;5091033;28;20934;-52
2021/04/21 07:00:48;;;;;;;48.60;31.20;;;;;;;;;;5091080;28;20422;-53
2021/04/21 07:03:18;;;;;;;47.60;32.50;;;;;;;;;;5091239;28;20929;-52
2021/04/21 07:05:45;;;;;;;44.77;30.27;;;;;;;;;;5090741;28;20443;-55
2021/04/21 07:08:11;;;;;;;46.90;29.60;;;;;;;;;;5091273;28;20402;-52
2021/04/21 07:10:43;;;;;;;41.87;29.20;;;;;;;;;;5091371;28;20421;-52
2021/04/21 07:13:20;;;;;;;45.47;30.10;;;;;;;;;;5091198;28;20423;-52
2021/04/21 07:15:47;;;;;;;46.43;31.57;;;;;;;;;;5091114;28;20756;-55
2021/04/21 07:18:17;;;;;;;47.87;29.67;;;;;;;;;;5091288;28;20447;-52
2021/04/21 07:20:44;;;;;;;42.40;31.10;;;;;;;;;;5091417;28;20414;-52
2021/04/21 07:23:10;;;;;;;42.70;29.67;;;;;;;;;;5090993;28;20444;-52
2021/04/21 07:25:37;;;;;;;41.70;28.90;;;;;;;;;;5090801;28;20431;-53
2021/04/21 07:28:04;;;;;;;41.23;28.97;;;;;;;;;;5090886;28;20407;-52
2021/04/21 07:30:33;;;;;;;45.30;29.70;;;;;;;;;;5091123;28;20439;-52
2021/04/21 07:33:00;;;;;;;38.33;28.10;;;;;;;;;;5089671;28;20396;-54
2021/04/21 07:35:28;;;;;;;34.77;28.03;;;;;;;;;;5090287;28;20389;-52
2021/04/21 07:37:56;;;;;;;38.60;28.50;;;;;;;;;;5090881;28;20477;-53
2021/04/21 07:40:30;;;;;;;36.67;28.20;;;;;;;;;;5090643;28;20390;-53
2021/04/21 07:43:09;;;;;;;40.60;28.80;;;;;;;;;;5090878;28;20409;-55
2021/04/21 07:45:49;;;;;;;50.57;37.10;;;;;;;;;;5090560;28;20797;-53
2021/04/21 07:48:34;;;;;;;56.87;40.43;;;;;;;;;;5091030;28;20812;-53
2021/04/21 07:51:15;;;;;;;39.63;28.07;;;;;;;;;;5090503;28;20424;-53
2021/04/21 07:53:53;;;;;;;37.20;28.10;;;;;;;;;;5090926;28;20800;-53
2021/04/21 07:56:20;;;;;;;32.70;28.07;;;;;;;;;;5090359;28;20452;-53
2021/04/21 07:58:46;;;;;;;35.93;27.33;;;;;;;;;;5090481;28;20481;-56
2021/04/21 08:01:12;;;;;;;34.27;27.87;;;;;;;;;;5090582;28;20399;-56
2021/04/21 08:03:39;;;;;;;30.40;27.07;;;;;;;;;;5090609;28;20537;-53
2021/04/21 08:06:06;;;;;;;40.80;26.70;;;;;;;;;;5090272;28;20418;-54
2021/04/21 08:08:34;;;;;;;37.60;27.20;;;;;;;;;;5071525;28;20420;-53
2021/04/21 08:11:01;;;;;;;34.70;26.27;;;;;;;;;;5068877;28;20547;-53
2021/04/21 08:13:39;;;;;;;38.97;28.53;;;;;;;;;;5070838;28;20404;-53
2021/04/21 08:16:06;;;;;;;36.97;28.13;;;;;;;;;;5071932;28;20787;-55
2021/04/21 08:18:32;;;;;;;38.07;28.37;;;;;;;;;;5074494;28;20555;-54
2021/04/21 08:20:58;;;;;;;37.20;27.50;;;;;;;;;;5074416;28;20782;-53
2021/04/21 08:23:25;;;;;;;34.07;28.00;;;;;;;;;;5074194;28;20397;-53
2021/04/21 08:25:51;;;;;;;35.83;26.47;;;;;;;;;;5074056;28;20442;-53
2021/04/21 08:28:19;;;;;;;35.47;25.33;;;;;;;;;;5074176;28;20487;-53
2021/04/21 08:30:55;;;;;;;30.87;25.77;;;;;;;;;;5074223;28;20427;-53
2021/04/21 08:33:21;;;;;;;34.67;25.47;;;;;;;;;;5074139;28;20406;-53
2021/04/21 08:35:47;;;;;;;32.47;26.00;;;;;;;;;;5073950;28;20400;-53
2021/04/21 08:38:14;;;;;;;33.13;25.27;;;;;;;;;;5073788;28;20959;-53
2021/04/21 08:40:41;;;;;;;31.43;24.60;;;;;;;;;;5074274;28;20420;-56
2021/04/21 08:43:07;;;;;;;31.67;25.07;;;;;;;;;;5073627;28;20436;-53
2021/04/21 08:45:34;;;;;;;29.00;25.10;;;;;;;;;;5073665;28;20400;-53
2021/04/21 08:48:01;;;;;;;28.60;25.57;;;;;;;;;;5073781;28;20450;-56
2021/04/21 08:50:28;;;;;;;30.67;23.07;;;;;;;;;;5073291;28;20430;-52
2021/04/21 08:52:56;;;;;;;26.80;23.90;;;;;;;;;;5073798;28;20412;-52
2021/04/21 08:55:23;;;;;;;30.20;24.00;;;;;;;;;;5073254;28;20436;-54
2021/04/21 08:57:49;;;;;;;27.57;21.30;;;;;;;;;;5073415;28;20808;-53
2021/04/21 09:00:17;;;;;;;28.60;24.17;;;;;;;;;;5097194;28;20446;-54
2021/04/21 09:02:45;;;;;;;34.03;27.17;;;;;;;;;;5095812;28;20404;-55
2021/04/21 09:05:12;;;;;;;26.77;17.00;;;;;;;;;;5093750;28;20402;-53
2021/04/21 09:07:38;;;;;;;20.67;15.00;;;;;;;;;;5092665;28;20492;-53
2021/04/21 09:10:11;;;;;;;16.57;14.40;;;;;;;;;;5092533;28;20427;-56
2021/04/21 09:12:37;;;;;;;14.40;11.07;;;;;;;;;;5093885;28;20432;-56
2021/04/21 09:15:05;;;;;;;13.13;10.60;;;;;;;;;;5092258;28;20931;-57
2021/04/21 09:17:31;;;;;;;14.33;12.70;;;;;;;;;;5093908;28;20403;-56
2021/04/21 09:20:01;;;;;;;16.40;13.47;;;;;;;;;;5075526;28;20467;-55
2021/04/21 09:22:30;;;;;;;16.80;12.40;;;;;;;;;;5095200;28;20445;-54
2021/04/21 09:24:57;;;;;;;12.97;11.67;;;;;;;;;;5108822;28;20502;-53
2021/04/21 09:27:31;;;;;;;9.83;8.83;;;;;;;;;;5113266;28;20378;-56
2021/04/21 09:30:11;;;;;;;9.30;8.50;;;;;;;;;;5114834;28;20509;-53
2021/04/21 09:32:48;;;;;;;14.07;11.47;;;;;;;;;;5113479;28;20402;-55
2021/04/21 09:35:22;;;;;;;13.23;10.53;;;;;;;;;;5113128;28;20455;-53
2021/04/21 09:37:49;;;;;;;15.10;10.67;;;;;;;;;;5111839;28;20406;-53
2021/04/21 09:40:32;;;;;;;13.73;10.13;;;;;;;;;;5113434;28;20423;-54
2021/04/21 09:42:58;;;;;;;12.23;11.03;;;;;;;;;;5113635;28;20423;-53
2021/04/21 09:45:34;;;;;;;9.97;8.97;;;;;;;;;;5113179;28;20430;-53
2021/04/21 09:48:32;;;;;;;12.60;9.87;;;;;;;;;;5113315;28;20413;-53
2021/04/21 09:51:08;;;;;;;11.03;9.37;;;;;;;;;;5100778;28;20442;-53
2021/04/21 09:53:35;;;;;;;11.10;8.63;;;;;;;;;;5113014;28;20399;-53
2021/04/21 09:56:06;;;;;;;10.00;9.00;;;;;;;;;;5112799;28;20485;-56
2021/04/21 09:58:36;;;;;;;14.13;10.20;;;;;;;;;;5094340;28;20458;-53
2021/04/21 10:01:02;;;;;;;11.17;10.00;;;;;;;;;;5112996;28;20419;-53
2021/04/21 10:03:29;;;;;;;11.50;10.03;;;;;;;;;;5112955;28;20399;-53
2021/04/21 10:05:55;;;;;;;12.77;10.40;;;;;;;;;;5112399;28;20402;-53
2021/04/21 10:08:27;;;;;;;9.93;8.83;;;;;;;;;;5113165;28;20409;-53
2021/04/21 10:11:00;;;;;;;12.73;9.57;;;;;;;;;;5112590;28;20414;-53
2021/04/21 10:13:27;;;;;;;8.80;7.90;;;;;;;;;;5113099;28;20414;-53
2021/04/21 10:15:53;;;;;;;10.90;7.83;;;;;;;;;;5112552;28;20399;-53
2021/04/21 10:18:19;;;;;;;21.03;8.43;;;;;;;;;;5112841;28;20477;-53
2021/04/21 10:20:46;;;;;;;11.20;8.90;;;;;;;;;;5113068;28;20446;-55
2021/04/21 10:23:13;;;;;;;10.07;8.43;;;;;;;;;;5112453;28;20394;-55
2021/04/21 10:25:39;;;;;;;10.80;9.27;;;;;;;;;;5112534;28;20490;-56
2021/04/21 10:28:06;;;;;;;9.33;8.37;;;;;;;;;;5104485;28;20751;-55
2021/04/21 10:30:32;;;;;;;11.53;8.80;;;;;;;;;;5071205;28;20424;-55
2021/04/21 10:32:58;;;;;;;10.30;8.60;;;;;;;;;;5071492;28;20411;-56
2021/04/21 10:35:25;;;;;;;31.50;22.30;;;;;;;;;;5071524;28;20901;-57
2021/04/21 10:37:52;;;;;;;12.27;9.30;;;;;;;;;;5053094;28;20499;-56
2021/04/21 10:40:23;;;;;;;12.63;10.23;;;;;;;;;;5071059;28;20887;-55
2021/04/21 10:43:02;;;;;;;10.80;9.30;;;;;;;;;;5071051;28;20475;-56
2021/04/21 10:45:29;;;;;;;15.40;10.00;;;;;;;;;;5071435;28;20392;-55
2021/04/21 10:47:56;;;;;;;10.77;8.67;;;;;;;;;;5071430;28;20434;-56
2021/04/21 10:50:34;;;;;;;8.50;7.67;;;;;;;;;;5071192;28;20416;-57
2021/04/21 10:53:00;;;;;;;10.43;8.53;;;;;;;;;;5071231;28;20404;-56
2021/04/21 10:55:29;;;;;;;8.60;7.80;;;;;;;;;;5071216;28;20401;-55
2021/04/21 10:57:56;;;;;;;11.00;8.27;;;;;;;;;;5071422;28;20488;-57
2021/04/21 11:00:27;;;;;;;9.20;8.13;;;;;;;;;;5053044;28;20851;-57
2021/04/21 11:02:58;;;;;;;8.13;7.37;;;;;;;;;;5037475;28;20412;-56
2021/04/21 11:05:28;;;;;;;9.53;7.20;;;;;;;;;;5068946;28;20747;-56
2021/04/21 11:08:04;;;;;;;12.30;8.43;;;;;;;;;;5069507;28;20896;-56
2021/04/21 11:10:33;;;;;;;11.20;8.30;;;;;;;;;;5070427;28;20428;-56
2021/04/21 11:13:01;;;;;;;11.70;7.67;;;;;;;;;;5070577;28;20911;-56
2021/04/21 11:15:36;;;;;;;8.20;7.40;;;;;;;;;;5070112;28;20833;-56
2021/04/21 11:18:11;;;;;;;9.97;8.63;;;;;;;;;;5070877;28;20444;-56
2021/04/21 11:20:49;;;;;;;15.53;8.67;;;;;;;;;;5070617;28;20465;-55
2021/04/21 11:23:33;;;;;;;12.97;8.20;;;;;;;;;;5070916;28;20466;-55
2021/04/21 11:26:18;;;;;;;7.83;7.03;;;;;;;;;;5070504;28;20385;-56
2021/04/21 11:29:07;;;;;;;12.83;8.93;;;;;;;;;;5071413;28;20428;-57
2021/04/21 11:31:48;;;;;;;9.77;8.37;;;;;;;;;;5024913;28;20918;-57
2021/04/21 11:34:27;;;;;;;9.83;8.83;;;;;;;;;;5070816;28;20423;-57
2021/04/21 11:37:13;;;;;;;15.70;9.67;;;;;;;;;;5052365;28;20408;-55
2021/04/21 11:39:42;;;;;;;11.53;10.33;;;;;;;;;;5070666;28;20460;-56
2021/04/21 11:42:16;;;;;;;11.60;9.33;;;;;;;;;;5070789;28;20479;-57
2021/04/21 11:44:44;;;;;;;12.93;9.03;;;;;;;;;;5071313;28;20434;-55
2021/04/21 11:47:27;;;;;;;9.80;8.80;;;;;;;;;;5070799;28;20408;-56
2021/04/21 11:49:59;;;;;;;10.90;8.87;;;;;;;;;;5070176;28;20416;-56
2021/04/21 11:52:44;;;;;;;13.70;8.77;;;;;;;;;;5070817;28;20396;-56
2021/04/21 11:55:30;;;;;;;11.73;9.47;;;;;;;;;;5070255;28;20429;-55
2021/04/21 11:57:59;;;;;;;9.40;7.73;;;;;;;;;;5070357;28;20762;-55
2021/04/21 12:00:44;;;;;;;10.10;8.30;;;;;;;;;;5070221;28;20440;-56
2021/04/21 12:03:17;;;;;;;9.83;8.63;;;;;;;;;;5070407;28;20404;-57
2021/04/21 12:05:44;;;;;;;11.00;9.60;;;;;;;;;;5070076;28;20405;-56
2021/04/21 12:08:10;;;;;;;10.37;9.30;;;;;;;;;;5070533;28;20401;-57
2021/04/21 12:10:37;;;;;;;14.10;8.60;;;;;;;;;;5070073;28;20432;-56
2021/04/21 12:13:23;;;;;;;10.80;7.87;;;;;;;;;;5070336;28;20404;-55
2021/04/21 12:15:50;;;;;;;11.70;7.67;;;;;;;;;;5069648;28;20772;-55
2021/04/21 12:18:27;;;;;;;12.33;9.40;;;;;;;;;;5070087;28;20483;-57
2021/04/21 12:20:53;;;;;;;11.70;8.80;;;;;;;;;;5070112;28;20423;-55
2021/04/21 12:23:32;;;;;;;12.83;9.27;;;;;;;;;;5070243;28;20404;-56
2021/04/21 12:26:00;;;;;;;13.30;8.93;;;;;;;;;;5070250;28;20435;-57
2021/04/21 12:28:26;;;;;;;12.00;10.00;;;;;;;;;;5070225;28;20407;-56
2021/04/21 12:31:01;;;;;;;11.50;10.20;;;;;;;;;;5068885;28;20416;-58
2021/04/21 12:33:27;;;;;;;14.00;11.70;;;;;;;;;;5069706;28;20404;-55
2021/04/21 12:35:56;;;;;;;12.33;11.03;;;;;;;;;;5069969;28;20403;-56
2021/04/21 12:38:32;;;;;;;16.13;11.73;;;;;;;;;;5079323;28;20466;-56
2021/04/21 12:41:00;;;;;;;13.60;12.20;;;;;;;;;;5090547;28;20506;-58
2021/04/21 12:43:27;;;;;;;12.80;11.23;;;;;;;;;;5090140;28;20529;-56
2021/04/21 12:45:53;;;;;;;19.10;10.87;;;;;;;;;;5089969;28;20449;-56
2021/04/21 12:48:19;;;;;;;12.90;11.60;;;;;;;;;;5090035;28;20411;-56
2021/04/21 12:50:49;;;;;;;12.10;10.70;;;;;;;;;;5090015;28;20419;-57
2021/04/21 12:53:16;;;;;;;15.43;11.10;;;;;;;;;;5089823;28;20402;-55
2021/04/21 12:55:42;;;;;;;13.67;10.10;;;;;;;;;;5089842;28;20399;-57
2021/04/21 12:58:08;;;;;;;15.50;10.20;;;;;;;;;;5089980;28;20458;-57
2021/04/21 13:00:34;;;;;;;16.90;10.97;;;;;;;;;;5090254;28;20442;-55
2021/04/21 13:03:00;;;;;;;10.60;9.70;;;;;;;;;;5093410;28;20392;-55
2021/04/21 13:05:44;;;;;;;11.60;10.20;;;;;;;;;;5093379;28;20809;-58
2021/04/21 13:08:22;;;;;;;14.00;11.00;;;;;;;;;;5075597;28;20439;-55
2021/04/21 13:10:48;;;;;;;15.43;11.70;;;;;;;;;;5093498;28;20423;-56
2021/04/21 13:13:20;;;;;;;15.83;12.30;;;;;;;;;;5093543;28;20403;-56
2021/04/21 13:15:46;;;;;;;14.70;12.67;;;;;;;;;;5093083;28;20828;-55
2021/04/21 13:18:14;;;;;;;14.70;13.13;;;;;;;;;;5092899;28;20498;-55
2021/04/21 13:20:43;;;;;;;14.40;12.63;;;;;;;;;;5104207;28;20439;-55
2021/04/21 13:23:18;;;;;;;17.47;14.67;;;;;;;;;;5093739;28;20403;-56
2021/04/21 13:26:04;;;;;;;25.27;14.80;;;;;;;;;;5091195;28;20848;-56
2021/04/21 13:28:34;;;;;;;14.03;12.30;;;;;;;;;;5092254;28;20395;-56
2021/04/21 13:31:03;;;;;;;13.30;11.90;;;;;;;;;;5092929;28;20426;-57
2021/04/21 13:33:29;;;;;;;12.77;11.07;;;;;;;;;;5093091;28;20513;-56
2021/04/21 13:35:55;;;;;;;22.27;14.33;;;;;;;;;;5092936;28;20494;-57
2021/04/21 13:38:21;;;;;;;13.90;12.60;;;;;;;;;;5092809;28;20643;-58
2021/04/21 13:40:47;;;;;;;15.33;13.00;;;;;;;;;;5092869;28;20423;-57
2021/04/21 13:43:13;;;;;;;15.93;12.80;;;;;;;;;;5092815;28;20409;-56
2021/04/21 13:45:39;;;;;;;14.73;12.20;;;;;;;;;;5092780;28;20402;-56
2021/04/21 13:48:05;;;;;;;18.10;12.67;;;;;;;;;;5092819;28;20411;-56
2021/04/21 13:50:31;;;;;;;18.90;13.53;;;;;;;;;;5092496;28;20757;-55
2021/04/21 13:52:57;;;;;;;14.90;13.30;;;;;;;;;;5092765;28;20460;-57
2021/04/21 13:55:23;;;;;;;22.63;14.33;;;;;;;;;;5092710;28;20439;-57
2021/04/21 13:57:49;;;;;;;15.00;13.03;;;;;;;;;;5092645;28;20408;-56
2021/04/21 14:00:15;;;;;;;21.60;14.77;;;;;;;;;;5092542;28;20810;-55
2021/04/21 14:02:42;;;;;;;16.93;13.97;;;;;;;;;;5092809;28;20375;-56
2021/04/21 14:05:09;;;;;;;14.63;13.00;;;;;;;;;;5092614;28;20395;-57
2021/04/21 14:07:35;;;;;;;16.30;13.93;;;;;;;;;;5092614;28;20407;-56
2021/04/21 14:10:02;;;;;;;15.70;14.10;;;;;;;;;;5092335;28;20423;-55
2021/04/21 14:12:28;;;;;;;21.23;15.33;;;;;;;;;;5092154;28;20969;-57
2021/04/21 14:14:54;;;;;;;21.97;14.20;;;;;;;;;;5091872;28;20486;-56
2021/04/21 14:17:20;;;;;;;14.77;12.90;;;;;;;;;;5092264;28;20818;-57
2021/04/21 14:19:46;;;;;;;15.07;12.97;;;;;;;;;;5092207;28;20823;-56
2021/04/21 14:22:13;;;;;;;17.40;14.67;;;;;;;;;;5092013;28;20484;-56
2021/04/21 14:24:40;;;;;;;15.00;13.40;;;;;;;;;;5092297;28;20766;-57
2021/04/21 14:27:06;;;;;;;16.90;13.80;;;;;;;;;;5091818;28;20449;-56
2021/04/21 14:29:32;;;;;;;16.00;12.43;;;;;;;;;;5092065;28;20757;-56
2021/04/21 14:31:58;;;;;;;17.03;13.03;;;;;;;;;;5091986;28;20411;-57
2021/04/21 14:34:24;;;;;;;17.70;14.53;;;;;;;;;;5092038;28;20891;-57
2021/04/21 14:36:50;;;;;;;16.80;14.90;;;;;;;;;;5091560;28;20415;-56
2021/04/21 14:39:16;;;;;;;15.87;13.40;;;;;;;;;;5091811;28;20500;-55
2021/04/21 14:41:42;;;;;;;17.10;14.03;;;;;;;;;;5091897;28;20392;-55